Palmersville, Tennessee
Current Conditions -  °F | °C
As of 8:55 AM on Monday 24 Nov 2014 (Local Time) from KPHT Reporting Station
Overcast Overcast  
Wind Chill: 37°   Ceiling: 2500
Heat Index: 45°   Visibility: 10mi
Dew Point: 37°   Wind: 20mph
Humidity: 76%   Direction: 250°WSW
Pressure: 29.74"   Gusts: NA
Location:  36.4°N, 88.59°W
Report Text: KPHT 241455Z AUTO 25017KT 10SM OVC025 07/03 A2974 RMK
Loading
Personal Weather Stations






























Interactive Weather Map New forecast layout! Learn more

10-Day Weather Forecast

Advertisements
Track Severe Weather on mobile